AirNav   Air Wisconsin Airman Trainee
 
 1398 users online  

CL83 Joe Heidrick Heliport
Woodland, California, USA

GOING TO WOODLAND?


FAA INFORMATION EFFECTIVE 28 FEBRUARY 2019

Location

FAA Identifier: CL83
Lat/Long: 38-39-57.7000N / 121-49-27.1700W
38-39.961667N / 121-49.452833W
38.6660278 / -121.8242139
(estimated)
Elevation: 120 ft. / 37 m (estimated)
Variation: 16E (1980)
From city: 2 miles W of WOODLAND, CA
Time zone: UTC -8 (UTC -7 during Daylight Saving Time)
Zip code: 95695

Heliport Operations

Heliport use: Private use. Permission required prior to landing
Activation date: 07/1986
Control tower: no
ARTCC: OAKLAND CENTER
FSS: RANCHO MURIETA FLIGHT SERVICE STATION
Attendance: ON CALL
Wind indicator: yes
Segmented circle: no

Heliport Communications

WX AWOS-3 at DWA (5 nm S): 125.775 (530-750-2759)
WX AWOS-3 at EDU (8 nm S): 119.025 (530-754-6839)
WX ASOS at SMF (11 nm E): PHONE 916-649-3996
WX ASOS at SAC (18 nm SE): PHONE 916-421-0923
WX ASOS at VCB (18 nm S): 134.75 (707-448-1594)
WX AWOS-3 at MCC (20 nm E): 125.975 (916-641-1272)

Nearby radio navigation aids

VOR radial/distance  VOR name  Freq  Var
SACr299/18.5SACRAMENTO VORTAC115.2017E
MCCr253/19.7MC CLELLAN VOR/DME109.2017E
ILAr141/26.1WILLIAMS VORTAC114.4018E
MYVr188/28.5MARYSVILLE VOR/DME110.8016E
CCRr359/38.7CONCORD VOR/DME117.0017E
SGDr024/39.0SCAGGS ISLAND VORTAC112.1017E

Heliport Services

Runway Information

Helipad H1

Dimensions: 80 x 50 ft. / 24 x 15 m
Surface: turf
Latitude: 38-39.961667N
Longitude: 121-49.452833W
Elevation: 120.0 ft.
Traffic pattern: leftleft

Heliport Ownership and Management from official FAA records

Ownership: Privately-owned
Owner: JOE HEIDRICK, JR.
36826 CO RD 24
WOODLAND, CA 95695
Phone 530-662-3046
Manager: JOE HEIDRICK, JR.
36826 CO RD 24
WOODLAND, CA 95695
Phone 530-662-8252

Heliport Operational Statistics

Aircraft based on the field: 1
Helicopters: 1
    

Additional Remarks

A52-H1 TELEPHONE LINES 1/4 MILE E AND S. HANGAR NEXT TO HELIPORT.

Instrument Procedures

There are no published instrument procedures at CL83.

Some nearby airports with instrument procedures:

O41 - Watts-Woodland Airport (2 nm W)
KDWA - Yolo County Airport (5 nm S)
KEDU - University Airport (8 nm S)
KSMF - Sacramento International Airport (11 nm E)
KSAC - Sacramento Executive Airport (18 nm SE)
KVCB - Nut Tree Airport (18 nm S)
KMCC - Mc Clellan Airfield (20 nm E)
 
Loc | Ops | Rwys | IFR | FBO | Links
Com | Nav | Svcs | Stats | Notes

Sonoma Jet Center
 
Area around CL83 (Joe Heidrick Heliport)
 
Road maps at: MapQuest Bing Google
 
Aerial photo
No photo
 
Sectional chart

 
Airport distance calculator
Flying to Joe Heidrick Heliport? Find the distance to fly.

From to CL83

Sunrise and sunset
Times for 18-Mar-2019
 Local
(UTC-7)
 Zulu
(UTC)
Morning civil twilight06:4813:48
Sunrise07:1514:15
Sunset19:1602:16
Evening civil twilight19:4302:43

Current date and time
Zulu (UTC)  18-Mar-2019 20:54:14
Local (UTC-7)  18-Mar-2019 13:54:14
 
METAR
KEDU 
8nm S 
182035Z AUTO 02004KT 10SM CLR 21/09 A2999 RMK AO1
KSMF 
11nm E 
181953Z VRB04KT 10SM CLR 19/09 A2999 RMK AO2 SLP154 T01940094
KVCB 
18nm S 
181953Z AUTO 04006KT 22/09 A3000 RMK AO2 SLP158 T02220089 $
KSAC 
18nm SE 
181953Z 23003KT 10SM CLR 21/07 A2999 RMK AO2 SLP155 T02060072
KMCC 
20nm E 
182035Z AUTO 00000KT 7SM CLR 21/05 A3000 RMK AO2
TAF
KSMF 
11nm E 
181738Z 1818/1918 33006KT P6SM SCT250 FM190200 VRB05KT P6SM BKN250
KSAC 
18nm SE 
181738Z 1818/1918 33005KT P6SM SCT250 FM190200 VRB03KT P6SM BKN250
KMCC 
20nm E 
181738Z 1818/1918 33004KT P6SM SCT250 FM190200 VRB03KT P6SM BKN250
NOTAMs
Click for the latest NOTAMs
NOTAMs are issued by the DoD/FAA and will open in a separate window not controlled by AirNav.

 

 
 

Would you like to see your business listed on this page?

 If your business provides an interesting product or service to pilots, flight crews, aircraft, or users of the Joe Heidrick Heliport, you should consider listing it here.  To start the listing process, click on the button below
 
Add a business
 

Other Pages about Joe Heidrick Heliport

Update a link
 
Copyright © AirNav, LLC. All rights reserved. Privacy Policy  Contact